sensor_id;sensor_type;location;lat;lon;timestamp;P1;durP1;ratioP1;P2;durP2;ratioP2
74644;SDS011;63163;55.630;37.594;2024-03-23T06:19:38;16.200001;;;10.300000;;
74644;SDS011;63163;55.630;37.594;2024-03-23T06:20:38;17.900000;;;12.700000;;
74644;SDS011;63163;55.630;37.594;2024-03-23T06:21:42;17.000000;;;12.600000;;
74644;SDS011;63163;55.630;37.594;2024-03-23T06:22:43;17.700001;;;10.100000;;
74644;SDS011;63163;55.630;37.594;2024-03-23T06:23:44;15.900000;;;12.000000;;
74644;SDS011;63163;55.630;37.594;2024-03-23T06:24:51;19.100000;;;12.900000;;
74644;SDS011;63163;55.630;37.594;2024-03-23T06:25:51;17.900000;;;11.400000;;
74644;SDS011;63163;55.630;37.594;2024-03-23T06:26:52;16.900000;;;10.600000;;
74644;SDS011;63163;55.630;37.594;2024-03-23T06:27:52;16.700001;;;11.600000;;
74644;SDS011;63163;55.630;37.594;2024-03-23T06:28:53;15.500000;;;9.200000;;
74644;SDS011;63163;55.630;37.594;2024-03-23T06:29:54;17.500000;;;12.000000;;
74644;SDS011;63163;55.630;37.594;2024-03-23T06:30:54;16.700001;;;11.500000;;
74644;SDS011;63163;55.630;37.594;2024-03-23T06:31:55;13.400000;;;8.900000;;
74644;SDS011;63163;55.630;37.594;2024-03-23T06:32:55;17.000000;;;11.200000;;
74644;SDS011;63163;55.630;37.594;2024-03-23T06:33:56;14.700000;;;10.300000;;
74644;SDS011;63163;55.630;37.594;2024-03-23T06:34:56;16.299999;;;12.300000;;
74644;SDS011;63163;55.630;37.594;2024-03-23T06:35:57;12.100000;;;8.500000;;
74644;SDS011;63163;55.630;37.594;2024-03-23T06:36:58;15.300000;;;11.500000;;
74644;SDS011;63163;55.630;37.594;2024-03-23T06:37:58;16.200001;;;10.900000;;
74644;SDS011;63163;55.630;37.594;2024-03-23T06:38:58;16.799999;;;12.400000;;
74644;SDS011;63163;55.630;37.594;2024-03-23T06:39:59;14.600000;;;10.700000;;
74644;SDS011;63163;55.630;37.594;2024-03-23T06:41:00;18.799999;;;11.000000;;
74644;SDS011;63163;55.630;37.594;2024-03-23T06:42:02;15.200000;;;11.800000;;
74644;SDS011;63163;55.630;37.594;2024-03-23T06:43:03;17.200001;;;12.000000;;
74644;SDS011;63163;55.630;37.594;2024-03-23T06:44:04;12.700000;;;9.300000;;
74644;SDS011;63163;55.630;37.594;2024-03-23T06:45:05;13.600000;;;10.900000;;
74644;SDS011;63163;55.630;37.594;2024-03-23T06:46:05;16.000000;;;11.100000;;
74644;SDS011;63163;55.630;37.594;2024-03-23T06:47:06;10.900000;;;8.400000;;
74644;SDS011;63163;55.630;37.594;2024-03-23T06:48:07;12.900000;;;9.400000;;
74644;SDS011;63163;55.630;37.594;2024-03-23T06:49:08;13.200000;;;9.600000;;
74644;SDS011;63163;55.630;37.594;2024-03-23T06:50:09;13.100000;;;9.100000;;
74644;SDS011;63163;55.630;37.594;2024-03-23T06:51:10;14.900000;;;10.000000;;
74644;SDS011;63163;55.630;37.594;2024-03-23T06:52:11;12.900000;;;10.800000;;
74644;SDS011;63163;55.630;37.594;2024-03-23T06:53:11;15.400000;;;11.300000;;
74644;SDS011;63163;55.630;37.594;2024-03-23T06:54:12;16.100000;;;11.400000;;
74644;SDS011;63163;55.630;37.594;2024-03-23T06:55:12;12.300000;;;9.900000;;
74644;SDS011;63163;55.630;37.594;2024-03-23T06:56:13;11.900000;;;8.800000;;
74644;SDS011;63163;55.630;37.594;2024-03-23T06:57:13;16.400000;;;11.900000;;
74644;SDS011;63163;55.630;37.594;2024-03-23T06:58:14;12.500000;;;8.500000;;
74644;SDS011;63163;55.630;37.594;2024-03-23T06:59:14;14.600000;;;9.300000;;
74644;SDS011;63163;55.630;37.594;2024-03-23T07:00:15;12.900000;;;9.800000;;
74644;SDS011;63163;55.630;37.594;2024-03-23T07:01:16;14.600000;;;10.500000;;
74644;SDS011;63163;55.630;37.594;2024-03-23T07:02:16;13.600000;;;9.300000;;
74644;SDS011;63163;55.630;37.594;2024-03-23T07:03:17;13.700000;;;10.800000;;
74644;SDS011;63163;55.630;37.594;2024-03-23T07:04:18;13.200000;;;9.400000;;
74644;SDS011;63163;55.630;37.594;2024-03-23T07:05:18;11.600000;;;8.900000;;
74644;SDS011;63163;55.630;37.594;2024-03-23T07:06:19;14.500000;;;9.600000;;
74644;SDS011;63163;55.630;37.594;2024-03-23T07:07:21;13.500000;;;11.800000;;
74644;SDS011;63163;55.630;37.594;2024-03-23T07:08:22;14.000000;;;11.000000;;
74644;SDS011;63163;55.630;37.594;2024-03-23T07:09:23;11.500000;;;7.700000;;
74644;SDS011;63163;55.630;37.594;2024-03-23T07:10:26;12.700000;;;9.600000;;
74644;SDS011;63163;55.630;37.594;2024-03-23T07:11:26;12.100000;;;9.000000;;
74644;SDS011;63163;55.630;37.594;2024-03-23T07:12:27;12.500000;;;9.300000;;
74644;SDS011;63163;55.630;37.594;2024-03-23T07:13:27;12.500000;;;9.400000;;
74644;SDS011;63163;55.630;37.594;2024-03-23T07:14:28;12.300000;;;9.600000;;
74644;SDS011;63163;55.630;37.594;2024-03-23T07:15:28;12.700000;;;9.800000;;
74644;SDS011;63163;55.630;37.594;2024-03-23T07:16:29;13.900000;;;9.600000;;
74644;SDS011;63163;55.630;37.594;2024-03-23T07:17:30;13.800000;;;11.100000;;
74644;SDS011;63163;55.630;37.594;2024-03-23T07:18:30;11.100000;;;8.100000;;
74644;SDS011;63163;55.630;37.594;2024-03-23T07:19:31;13.400000;;;9.700000;;
74644;SDS011;63163;55.630;37.594;2024-03-23T07:20:31;13.500000;;;9.700000;;
74644;SDS011;63163;55.630;37.594;2024-03-23T07:21:32;12.700000;;;9.600000;;
74644;SDS011;63163;55.630;37.594;2024-03-23T07:22:32;9.800000;;;8.200000;;
74644;SDS011;63163;55.630;37.594;2024-03-23T07:23:33;12.100000;;;9.100000;;
74644;SDS011;63163;55.630;37.594;2024-03-23T07:24:34;11.500000;;;9.200000;;
74644;SDS011;63163;55.630;37.594;2024-03-23T07:25:34;13.400000;;;10.000000;;
74644;SDS011;63163;55.630;37.594;2024-03-23T07:26:35;11.400000;;;9.100000;;
74644;SDS011;63163;55.630;37.594;2024-03-23T07:27:36;12.900000;;;9.700000;;
74644;SDS011;63163;55.630;37.594;2024-03-23T07:28:36;11.700000;;;9.500000;;
74644;SDS011;63163;55.630;37.594;2024-03-23T07:29:37;11.500000;;;8.700000;;
74644;SDS011;63163;55.630;37.594;2024-03-23T07:30:38;12.000000;;;8.600000;;
74644;SDS011;63163;55.630;37.594;2024-03-23T07:31:38;13.200000;;;10.000000;;
74644;SDS011;63163;55.630;37.594;2024-03-23T07:32:39;12.700000;;;9.200000;;
74644;SDS011;63163;55.630;37.594;2024-03-23T07:33:41;11.000000;;;8.400000;;
74644;SDS011;63163;55.630;37.594;2024-03-23T07:34:42;10.900000;;;8.300000;;
74644;SDS011;63163;55.630;37.594;2024-03-23T07:35:44;10.500000;;;7.700000;;
74644;SDS011;63163;55.630;37.594;2024-03-23T07:36:45;12.100000;;;9.200000;;
74644;SDS011;63163;55.630;37.594;2024-03-23T07:37:45;11.800000;;;7.800000;;
74644;SDS011;63163;55.630;37.594;2024-03-23T07:38:46;11.700000;;;9.300000;;
74644;SDS011;63163;55.630;37.594;2024-03-23T07:39:46;13.600000;;;9.600000;;
74644;SDS011;63163;55.630;37.594;2024-03-23T07:40:47;11.900000;;;8.600000;;
74644;SDS011;63163;55.630;37.594;2024-03-23T07:41:50;11.500000;;;9.300000;;
74644;SDS011;63163;55.630;37.594;2024-03-23T07:42:50;8.600000;;;6.500000;;
74644;SDS011;63163;55.630;37.594;2024-03-23T07:43:51;12.100000;;;9.000000;;
74644;SDS011;63163;55.630;37.594;2024-03-23T07:44:52;12.300000;;;9.500000;;
74644;SDS011;63163;55.630;37.594;2024-03-23T07:45:54;10.500000;;;8.000000;;
74644;SDS011;63163;55.630;37.594;2024-03-23T07:46:54;12.000000;;;8.600000;;
74644;SDS011;63163;55.630;37.594;2024-03-23T07:47:54;12.100000;;;9.800000;;
74644;SDS011;63163;55.630;37.594;2024-03-23T07:48:55;10.900000;;;8.300000;;
74644;SDS011;63163;55.630;37.594;2024-03-23T07:49:55;11.900000;;;9.200000;;
74644;SDS011;63163;55.630;37.594;2024-03-23T07:50:57;12.900000;;;9.400000;;
74644;SDS011;63163;55.630;37.594;2024-03-23T07:51:58;12.900000;;;10.600000;;
74644;SDS011;63163;55.630;37.594;2024-03-23T07:52:58;12.400000;;;8.800000;;
74644;SDS011;63163;55.630;37.594;2024-03-23T07:53:59;14.000000;;;10.100000;;
74644;SDS011;63163;55.630;37.594;2024-03-23T07:54:59;11.500000;;;9.100000;;
74644;SDS011;63163;55.630;37.594;2024-03-23T07:56:01;11.700000;;;9.700000;;
74644;SDS011;63163;55.630;37.594;2024-03-23T07:57:01;11.700000;;;8.600000;;
74644;SDS011;63163;55.630;37.594;2024-03-23T07:58:02;11.700000;;;9.300000;;
74644;SDS011;63163;55.630;37.594;2024-03-23T07:59:03;11.100000;;;8.900000;;
74644;SDS011;63163;55.630;37.594;2024-03-23T08:00:04;9.500000;;;7.700000;;
74644;SDS011;63163;55.630;37.594;2024-03-23T08:01:05;13.600000;;;9.500000;;
74644;SDS011;63163;55.630;37.594;2024-03-23T08:02:05;12.600000;;;9.300000;;
74644;SDS011;63163;55.630;37.594;2024-03-23T08:03:06;12.100000;;;8.500000;;
74644;SDS011;63163;55.630;37.594;2024-03-23T08:04:06;12.500000;;;9.100000;;
74644;SDS011;63163;55.630;37.594;2024-03-23T08:05:07;11.300000;;;7.900000;;
74644;SDS011;63163;55.630;37.594;2024-03-23T08:06:08;12.800000;;;9.500000;;
74644;SDS011;63163;55.630;37.594;2024-03-23T08:07:09;12.000000;;;9.600000;;
74644;SDS011;63163;55.630;37.594;2024-03-23T08:08:09;12.000000;;;9.600000;;
74644;SDS011;63163;55.630;37.594;2024-03-23T08:09:11;10.700000;;;8.200000;;
74644;SDS011;63163;55.630;37.594;2024-03-23T08:10:11;13.300000;;;9.800000;;
74644;SDS011;63163;55.630;37.594;2024-03-23T08:11:13;13.100000;;;9.900000;;
74644;SDS011;63163;55.630;37.594;2024-03-23T08:12:14;11.000000;;;8.100000;;
74644;SDS011;63163;55.630;37.594;2024-03-23T08:13:14;13.700000;;;9.700000;;
74644;SDS011;63163;55.630;37.594;2024-03-23T08:14:15;8.800000;;;6.800000;;
74644;SDS011;63163;55.630;37.594;2024-03-23T08:15:15;10.500000;;;8.400000;;
74644;SDS011;63163;55.630;37.594;2024-03-23T08:16:16;10.800000;;;9.300000;;
74644;SDS011;63163;55.630;37.594;2024-03-23T08:17:16;11.700000;;;8.700000;;
74644;SDS011;63163;55.630;37.594;2024-03-23T08:18:17;12.400000;;;9.100000;;
74644;SDS011;63163;55.630;37.594;2024-03-23T08:19:17;12.600000;;;10.600000;;
74644;SDS011;63163;55.630;37.594;2024-03-23T08:20:18;10.600000;;;8.000000;;
74644;SDS011;63163;55.630;37.594;2024-03-23T08:21:18;10.300000;;;8.200000;;
74644;SDS011;63163;55.630;37.594;2024-03-23T08:22:19;11.200000;;;9.100000;;
74644;SDS011;63163;55.630;37.594;2024-03-23T08:23:20;13.000000;;;8.700000;;
74644;SDS011;63163;55.630;37.594;2024-03-23T08:24:20;12.900000;;;8.600000;;
74644;SDS011;63163;55.630;37.594;2024-03-23T08:25:21;11.900000;;;8.500000;;
74644;SDS011;63163;55.630;37.594;2024-03-23T08:26:21;10.800000;;;8.700000;;
74644;SDS011;63163;55.630;37.594;2024-03-23T08:27:22;10.800000;;;8.200000;;
74644;SDS011;63163;55.630;37.594;2024-03-23T08:28:22;11.500000;;;8.100000;;
74644;SDS011;63163;55.630;37.594;2024-03-23T08:29:23;11.700000;;;8.700000;;
74644;SDS011;63163;55.630;37.594;2024-03-23T08:30:23;12.200000;;;8.600000;;
74644;SDS011;63163;55.630;37.594;2024-03-23T08:31:24;13.200000;;;9.500000;;
74644;SDS011;63163;55.630;37.594;2024-03-23T08:32:25;10.000000;;;7.900000;;
74644;SDS011;63163;55.630;37.594;2024-03-23T08:33:25;10.300000;;;8.100000;;
74644;SDS011;63163;55.630;37.594;2024-03-23T08:34:26;9.800000;;;7.000000;;
74644;SDS011;63163;55.630;37.594;2024-03-23T08:35:26;11.500000;;;9.300000;;
74644;SDS011;63163;55.630;37.594;2024-03-23T08:36:27;11.100000;;;9.100000;;
74644;SDS011;63163;55.630;37.594;2024-03-23T08:37:27;11.700000;;;8.700000;;
74644;SDS011;63163;55.630;37.594;2024-03-23T08:38:28;10.400000;;;7.300000;;
74644;SDS011;63163;55.630;37.594;2024-03-23T08:39:28;10.100000;;;7.400000;;
74644;SDS011;63163;55.630;37.594;2024-03-23T08:40:29;12.700000;;;8.300000;;
74644;SDS011;63163;55.630;37.594;2024-03-23T08:41:29;9.600000;;;8.300000;;
74644;SDS011;63163;55.630;37.594;2024-03-23T08:42:30;9.800000;;;7.400000;;
74644;SDS011;63163;55.630;37.594;2024-03-23T08:43:31;9.400000;;;7.400000;;
74644;SDS011;63163;55.630;37.594;2024-03-23T08:44:31;11.300000;;;8.400000;;
74644;SDS011;63163;55.630;37.594;2024-03-23T08:45:32;11.100000;;;7.300000;;
74644;SDS011;63163;55.630;37.594;2024-03-23T08:46:32;12.000000;;;8.500000;;
74644;SDS011;63163;55.630;37.594;2024-03-23T08:47:34;9.900000;;;7.600000;;
74644;SDS011;63163;55.630;37.594;2024-03-23T08:48:35;11.200000;;;7.900000;;
74644;SDS011;63163;55.630;37.594;2024-03-23T08:49:35;8.400000;;;6.600000;;
74644;SDS011;63163;55.630;37.594;2024-03-23T08:50:36;10.900000;;;8.600000;;
74644;SDS011;63163;55.630;37.594;2024-03-23T08:51:36;11.300000;;;8.700000;;
74644;SDS011;63163;55.630;37.594;2024-03-23T08:52:37;8.800000;;;7.400000;;
74644;SDS011;63163;55.630;37.594;2024-03-23T08:53:38;10.900000;;;8.600000;;
74644;SDS011;63163;55.630;37.594;2024-03-23T08:54:38;11.600000;;;7.900000;;
74644;SDS011;63163;55.630;37.594;2024-03-23T08:55:39;11.200000;;;8.200000;;
74644;SDS011;63163;55.630;37.594;2024-03-23T08:56:40;12.300000;;;8.300000;;
74644;SDS011;63163;55.630;37.594;2024-03-23T08:57:40;11.000000;;;8.300000;;
74644;SDS011;63163;55.630;37.594;2024-03-23T08:58:41;9.800000;;;8.600000;;
74644;SDS011;63163;55.630;37.594;2024-03-23T08:59:42;10.400000;;;8.500000;;
74644;SDS011;63163;55.630;37.594;2024-03-23T09:00:42;11.100000;;;8.100000;;
74644;SDS011;63163;55.630;37.594;2024-03-23T09:01:43;10.200000;;;8.200000;;
74644;SDS011;63163;55.630;37.594;2024-03-23T09:02:47;10.600000;;;8.200000;;
74644;SDS011;63163;55.630;37.594;2024-03-23T09:03:47;11.400000;;;8.500000;;
74644;SDS011;63163;55.630;37.594;2024-03-23T09:04:48;11.200000;;;7.900000;;
74644;SDS011;63163;55.630;37.594;2024-03-23T09:05:49;9.800000;;;7.900000;;
74644;SDS011;63163;55.630;37.594;2024-03-23T09:06:49;8.600000;;;7.300000;;
74644;SDS011;63163;55.630;37.594;2024-03-23T09:07:50;9.000000;;;6.600000;;
74644;SDS011;63163;55.630;37.594;2024-03-23T09:08:50;10.200000;;;8.700000;;
74644;SDS011;63163;55.630;37.594;2024-03-23T09:09:51;10.800000;;;7.900000;;
74644;SDS011;63163;55.630;37.594;2024-03-23T09:10:51;13.500000;;;8.700000;;
74644;SDS011;63163;55.630;37.594;2024-03-23T09:11:52;9.800000;;;7.000000;;
74644;SDS011;63163;55.630;37.594;2024-03-23T09:12:53;11.100000;;;8.700000;;
74644;SDS011;63163;55.630;37.594;2024-03-23T09:13:53;10.000000;;;8.100000;;
74644;SDS011;63163;55.630;37.594;2024-03-23T09:14:53;10.000000;;;8.500000;;
74644;SDS011;63163;55.630;37.594;2024-03-23T09:15:54;9.700000;;;7.100000;;
74644;SDS011;63163;55.630;37.594;2024-03-23T09:16:56;10.000000;;;8.100000;;
74644;SDS011;63163;55.630;37.594;2024-03-23T09:17:58;9.500000;;;7.000000;;
74644;SDS011;63163;55.630;37.594;2024-03-23T09:18:59;8.100000;;;6.600000;;
74644;SDS011;63163;55.630;37.594;2024-03-23T09:19:59;9.800000;;;8.200000;;
74644;SDS011;63163;55.630;37.594;2024-03-23T09:21:00;11.300000;;;8.000000;;
74644;SDS011;63163;55.630;37.594;2024-03-23T09:22:00;10.500000;;;8.000000;;
74644;SDS011;63163;55.630;37.594;2024-03-23T09:23:01;11.400000;;;7.200000;;
74644;SDS011;63163;55.630;37.594;2024-03-23T09:24:01;10.600000;;;7.900000;;
74644;SDS011;63163;55.630;37.594;2024-03-23T09:25:02;9.000000;;;8.000000;;
74644;SDS011;63163;55.630;37.594;2024-03-23T09:26:06;10.600000;;;7.300000;;
74644;SDS011;63163;55.630;37.594;2024-03-23T09:27:09;9.200000;;;7.800000;;
74644;SDS011;63163;55.630;37.594;2024-03-23T09:28:10;9.600000;;;7.700000;;
74644;SDS011;63163;55.630;37.594;2024-03-23T09:29:10;7.100000;;;5.500000;;
74644;SDS011;63163;55.630;37.594;2024-03-23T09:30:11;8.200000;;;6.700000;;
74644;SDS011;63163;55.630;37.594;2024-03-23T09:31:12;7.700000;;;6.600000;;
74644;SDS011;63163;55.630;37.594;2024-03-23T09:32:15;10.500000;;;7.600000;;
74644;SDS011;63163;55.630;37.594;2024-03-23T09:33:15;10.300000;;;7.700000;;
74644;SDS011;63163;55.630;37.594;2024-03-23T09:34:16;8.800000;;;7.400000;;
74644;SDS011;63163;55.630;37.594;2024-03-23T09:35:16;9.700000;;;7.100000;;
74644;SDS011;63163;55.630;37.594;2024-03-23T09:36:17;9.900000;;;7.200000;;
74644;SDS011;63163;55.630;37.594;2024-03-23T09:37:17;10.300000;;;8.200000;;
74644;SDS011;63163;55.630;37.594;2024-03-23T09:38:18;10.600000;;;7.600000;;
74644;SDS011;63163;55.630;37.594;2024-03-23T09:39:18;8.100000;;;7.100000;;
74644;SDS011;63163;55.630;37.594;2024-03-23T09:40:19;8.500000;;;7.600000;;
74644;SDS011;63163;55.630;37.594;2024-03-23T09:41:20;8.600000;;;7.300000;;
74644;SDS011;63163;55.630;37.594;2024-03-23T09:42:20;8.500000;;;6.000000;;
74644;SDS011;63163;55.630;37.594;2024-03-23T09:43:21;8.600000;;;6.200000;;
74644;SDS011;63163;55.630;37.594;2024-03-23T09:44:21;7.800000;;;6.000000;;
74644;SDS011;63163;55.630;37.594;2024-03-23T09:45:26;9.400000;;;7.300000;;
74644;SDS011;63163;55.630;37.594;2024-03-23T09:46:27;9.500000;;;8.000000;;
74644;SDS011;63163;55.630;37.594;2024-03-23T09:47:29;9.500000;;;7.800000;;
74644;SDS011;63163;55.630;37.594;2024-03-23T09:48:29;10.100000;;;7.300000;;
74644;SDS011;63163;55.630;37.594;2024-03-23T09:49:30;11.100000;;;7.900000;;
74644;SDS011;63163;55.630;37.594;2024-03-23T09:50:32;8.300000;;;5.600000;;
74644;SDS011;63163;55.630;37.594;2024-03-23T09:51:33;9.300000;;;7.600000;;
74644;SDS011;63163;55.630;37.594;2024-03-23T09:52:35;9.400000;;;7.500000;;
74644;SDS011;63163;55.630;37.594;2024-03-23T09:53:36;7.700000;;;6.700000;;
74644;SDS011;63163;55.630;37.594;2024-03-23T09:54:37;9.800000;;;8.400000;;
74644;SDS011;63163;55.630;37.594;2024-03-23T09:55:38;8.600000;;;6.900000;;
74644;SDS011;63163;55.630;37.594;2024-03-23T09:56:39;7.900000;;;6.600000;;
74644;SDS011;63163;55.630;37.594;2024-03-23T09:57:39;8.800000;;;7.400000;;
74644;SDS011;63163;55.630;37.594;2024-03-23T09:58:40;7.800000;;;5.900000;;
74644;SDS011;63163;55.630;37.594;2024-03-23T09:59:40;8.800000;;;7.300000;;
74644;SDS011;63163;55.630;37.594;2024-03-23T10:00:41;8.600000;;;6.500000;;
74644;SDS011;63163;55.630;37.594;2024-03-23T10:01:41;8.700000;;;6.600000;;
74644;SDS011;63163;55.630;37.594;2024-03-23T10:02:42;9.900000;;;6.900000;;
74644;SDS011;63163;55.630;37.594;2024-03-23T10:03:43;8.500000;;;7.500000;;
74644;SDS011;63163;55.630;37.594;2024-03-23T10:04:44;9.400000;;;7.400000;;
74644;SDS011;63163;55.630;37.594;2024-03-23T10:05:44;8.900000;;;6.000000;;
74644;SDS011;63163;55.630;37.594;2024-03-23T10:06:45;9.600000;;;8.300000;;
74644;SDS011;63163;55.630;37.594;2024-03-23T10:07:46;7.600000;;;6.400000;;
74644;SDS011;63163;55.630;37.594;2024-03-23T10:08:46;9.800000;;;8.200000;;
74644;SDS011;63163;55.630;37.594;2024-03-23T10:09:47;9.100000;;;6.900000;;
74644;SDS011;63163;55.630;37.594;2024-03-23T10:10:48;10.400000;;;7.700000;;
74644;SDS011;63163;55.630;37.594;2024-03-23T10:11:48;9.400000;;;6.800000;;
74644;SDS011;63163;55.630;37.594;2024-03-23T10:12:50;9.100000;;;6.400000;;
74644;SDS011;63163;55.630;37.594;2024-03-23T10:13:51;10.000000;;;7.500000;;
74644;SDS011;63163;55.630;37.594;2024-03-23T10:14:51;9.200000;;;7.600000;;
74644;SDS011;63163;55.630;37.594;2024-03-23T10:15:55;8.900000;;;6.500000;;
74644;SDS011;63163;55.630;37.594;2024-03-23T10:16:59;8.800000;;;7.000000;;
74644;SDS011;63163;55.630;37.594;2024-03-23T10:18:17;9.700000;;;8.000000;;
74644;SDS011;63163;55.630;37.594;2024-03-23T10:19:18;10.400000;;;8.300000;;
74644;SDS011;63163;55.630;37.594;2024-03-23T10:20:30;8.900000;;;7.400000;;
74644;SDS011;63163;55.630;37.594;2024-03-23T10:21:30;9.500000;;;7.600000;;
74644;SDS011;63163;55.630;37.594;2024-03-23T10:22:31;10.900000;;;8.100000;;
74644;SDS011;63163;55.630;37.594;2024-03-23T10:23:37;9.500000;;;7.600000;;
74644;SDS011;63163;55.630;37.594;2024-03-23T10:24:37;10.300000;;;7.700000;;
74644;SDS011;63163;55.630;37.594;2024-03-23T10:25:38;10.700000;;;7.700000;;
74644;SDS011;63163;55.630;37.594;2024-03-23T10:26:38;8.700000;;;7.600000;;
74644;SDS011;63163;55.630;37.594;2024-03-23T10:27:39;9.000000;;;6.800000;;
74644;SDS011;63163;55.630;37.594;2024-03-23T10:28:50;8.100000;;;6.300000;;
74644;SDS011;63163;55.630;37.594;2024-03-23T10:29:50;8.600000;;;6.300000;;
74644;SDS011;63163;55.630;37.594;2024-03-23T10:30:51;9.100000;;;7.300000;;
74644;SDS011;63163;55.630;37.594;2024-03-23T10:31:51;10.400000;;;8.900000;;
74644;SDS011;63163;55.630;37.594;2024-03-23T10:32:52;10.500000;;;8.300000;;
74644;SDS011;63163;55.630;37.594;2024-03-23T10:33:57;10.100000;;;7.600000;;
74644;SDS011;63163;55.630;37.594;2024-03-23T10:34:57;8.100000;;;6.300000;;
74644;SDS011;63163;55.630;37.594;2024-03-23T10:36:13;9.200000;;;7.700000;;
74644;SDS011;63163;55.630;37.594;2024-03-23T10:37:14;9.600000;;;7.600000;;
74644;SDS011;63163;55.630;37.594;2024-03-23T10:38:15;9.900000;;;7.700000;;
74644;SDS011;63163;55.630;37.594;2024-03-23T10:39:15;8.600000;;;7.300000;;
74644;SDS011;63163;55.630;37.594;2024-03-23T10:40:17;11.000000;;;8.200000;;
74644;SDS011;63163;55.630;37.594;2024-03-23T10:41:18;9.000000;;;7.800000;;
74644;SDS011;63163;55.630;37.594;2024-03-23T10:42:19;11.000000;;;8.500000;;
74644;SDS011;63163;55.630;37.594;2024-03-23T10:43:21;9.300000;;;7.500000;;
74644;SDS011;63163;55.630;37.594;2024-03-23T10:44:22;11.500000;;;8.800000;;
74644;SDS011;63163;55.630;37.594;2024-03-23T10:45:26;10.600000;;;7.900000;;
74644;SDS011;63163;55.630;37.594;2024-03-23T10:46:27;10.300000;;;8.500000;;
74644;SDS011;63163;55.630;37.594;2024-03-23T10:47:28;9.900000;;;8.200000;;
74644;SDS011;63163;55.630;37.594;2024-03-23T10:48:29;9.800000;;;7.700000;;
74644;SDS011;63163;55.630;37.594;2024-03-23T10:49:30;11.900000;;;8.300000;;
74644;SDS011;63163;55.630;37.594;2024-03-23T10:50:31;9.000000;;;7.100000;;
74644;SDS011;63163;55.630;37.594;2024-03-23T10:51:31;8.700000;;;7.100000;;
74644;SDS011;63163;55.630;37.594;2024-03-23T10:52:32;10.000000;;;7.900000;;
74644;SDS011;63163;55.630;37.594;2024-03-23T10:53:32;11.600000;;;8.500000;;
74644;SDS011;63163;55.630;37.594;2024-03-23T10:54:34;9.700000;;;7.800000;;
74644;SDS011;63163;55.630;37.594;2024-03-23T10:55:34;10.500000;;;7.700000;;
74644;SDS011;63163;55.630;37.594;2024-03-23T10:56:35;10.900000;;;8.500000;;
74644;SDS011;63163;55.630;37.594;2024-03-23T10:57:37;10.300000;;;8.400000;;
74644;SDS011;63163;55.630;37.594;2024-03-23T10:58:40;12.100000;;;8.400000;;
74644;SDS011;63163;55.630;37.594;2024-03-23T10:59:41;10.100000;;;7.600000;;
74644;SDS011;63163;55.630;37.594;2024-03-23T11:00:42;11.500000;;;8.200000;;
74644;SDS011;63163;55.630;37.594;2024-03-23T11:01:53;10.200000;;;8.400000;;
74644;SDS011;63163;55.630;37.594;2024-03-23T11:02:54;11.500000;;;8.900000;;
74644;SDS011;63163;55.630;37.594;2024-03-23T11:03:56;10.100000;;;8.400000;;
74644;SDS011;63163;55.630;37.594;2024-03-23T11:04:56;10.100000;;;8.200000;;
74644;SDS011;63163;55.630;37.594;2024-03-23T11:05:57;10.500000;;;8.700000;;
74644;SDS011;63163;55.630;37.594;2024-03-23T11:06:58;8.800000;;;6.900000;;
74644;SDS011;63163;55.630;37.594;2024-03-23T11:07:59;11.700000;;;8.700000;;
74644;SDS011;63163;55.630;37.594;2024-03-23T11:08:59;7.500000;;;6.100000;;
74644;SDS011;63163;55.630;37.594;2024-03-23T11:10:00;9.400000;;;8.300000;;
74644;SDS011;63163;55.630;37.594;2024-03-23T11:11:17;10.300000;;;8.100000;;
74644;SDS011;63163;55.630;37.594;2024-03-23T11:12:26;13.100000;;;9.100000;;
74644;SDS011;63163;55.630;37.594;2024-03-23T11:13:27;12.700000;;;9.500000;;
74644;SDS011;63163;55.630;37.594;2024-03-23T11:14:32;9.700000;;;7.800000;;
74644;SDS011;63163;55.630;37.594;2024-03-23T11:15:34;10.600000;;;8.400000;;
74644;SDS011;63163;55.630;37.594;2024-03-23T11:16:34;10.600000;;;8.200000;;
74644;SDS011;63163;55.630;37.594;2024-03-23T11:17:36;12.600000;;;10.600000;;
74644;SDS011;63163;55.630;37.594;2024-03-23T11:18:36;13.200000;;;9.000000;;
74644;SDS011;63163;55.630;37.594;2024-03-23T11:19:37;10.800000;;;8.300000;;
74644;SDS011;63163;55.630;37.594;2024-03-23T11:20:38;9.200000;;;7.700000;;
74644;SDS011;63163;55.630;37.594;2024-03-23T11:21:54;10.800000;;;8.800000;;
74644;SDS011;63163;55.630;37.594;2024-03-23T11:22:55;11.000000;;;8.100000;;
74644;SDS011;63163;55.630;37.594;2024-03-23T11:23:58;13.700000;;;10.800000;;
74644;SDS011;63163;55.630;37.594;2024-03-23T11:25:13;10.400000;;;7.800000;;
74644;SDS011;63163;55.630;37.594;2024-03-23T11:26:14;13.000000;;;9.500000;;
74644;SDS011;63163;55.630;37.594;2024-03-23T11:27:15;10.000000;;;8.100000;;
74644;SDS011;63163;55.630;37.594;2024-03-23T11:28:15;11.700000;;;8.500000;;
74644;SDS011;63163;55.630;37.594;2024-03-23T11:29:17;14.900000;;;9.700000;;
74644;SDS011;63163;55.630;37.594;2024-03-23T11:30:19;11.300000;;;8.600000;;
74644;SDS011;63163;55.630;37.594;2024-03-23T11:31:19;12.000000;;;9.100000;;
74644;SDS011;63163;55.630;37.594;2024-03-23T11:32:22;13.600000;;;9.200000;;
74644;SDS011;63163;55.630;37.594;2024-03-23T11:33:22;10.900000;;;8.400000;;
74644;SDS011;63163;55.630;37.594;2024-03-23T11:34:23;12.700000;;;9.100000;;
74644;SDS011;63163;55.630;37.594;2024-03-23T11:35:25;10.500000;;;7.100000;;
74644;SDS011;63163;55.630;37.594;2024-03-23T11:36:26;11.400000;;;9.700000;;
74644;SDS011;63163;55.630;37.594;2024-03-23T11:37:26;12.800000;;;9.000000;;
74644;SDS011;63163;55.630;37.594;2024-03-23T11:38:27;12.000000;;;9.400000;;
74644;SDS011;63163;55.630;37.594;2024-03-23T11:39:27;11.200000;;;8.100000;;
74644;SDS011;63163;55.630;37.594;2024-03-23T11:40:28;10.700000;;;7.800000;;